sensor_id;sensor_type;location;lat;lon;timestamp;P1;durP1;ratioP1;P2;durP2;ratioP2
26201;SDS011;13944;28.562;77.188;2023-03-21T00:01:42;56.73;;;38.43;;
26201;SDS011;13944;28.562;77.188;2023-03-21T00:04:08;55.57;;;40.50;;
26201;SDS011;13944;28.562;77.188;2023-03-21T00:06:35;59.53;;;39.87;;
26201;SDS011;13944;28.562;77.188;2023-03-21T00:09:02;62.13;;;42.27;;
26201;SDS011;13944;28.562;77.188;2023-03-21T00:11:29;60.73;;;40.37;;
26201;SDS011;13944;28.562;77.188;2023-03-21T00:13:55;63.63;;;42.00;;
26201;SDS011;13944;28.562;77.188;2023-03-21T00:16:26;60.87;;;40.80;;
26201;SDS011;13944;28.562;77.188;2023-03-21T00:18:55;60.63;;;41.90;;
26201;SDS011;13944;28.562;77.188;2023-03-21T00:21:22;63.03;;;41.63;;
26201;SDS011;13944;28.562;77.188;2023-03-21T00:23:53;57.30;;;42.20;;
26201;SDS011;13944;28.562;77.188;2023-03-21T00:26:20;59.27;;;42.27;;
26201;SDS011;13944;28.562;77.188;2023-03-21T00:28:47;59.43;;;42.60;;
26201;SDS011;13944;28.562;77.188;2023-03-21T00:31:14;58.67;;;41.63;;
26201;SDS011;13944;28.562;77.188;2023-03-21T00:33:40;61.70;;;44.40;;
26201;SDS011;13944;28.562;77.188;2023-03-21T00:36:07;55.93;;;42.47;;
26201;SDS011;13944;28.562;77.188;2023-03-21T00:38:34;57.70;;;42.77;;
26201;SDS011;13944;28.562;77.188;2023-03-21T00:41:05;58.47;;;44.80;;
26201;SDS011;13944;28.562;77.188;2023-03-21T00:43:32;62.40;;;43.93;;
26201;SDS011;13944;28.562;77.188;2023-03-21T00:45:59;67.47;;;45.50;;
26201;SDS011;13944;28.562;77.188;2023-03-21T00:48:26;67.10;;;45.73;;
26201;SDS011;13944;28.562;77.188;2023-03-21T00:50:53;71.40;;;48.80;;
26201;SDS011;13944;28.562;77.188;2023-03-21T00:53:21;74.27;;;47.97;;
26201;SDS011;13944;28.562;77.188;2023-03-21T00:55:48;70.50;;;49.03;;
26201;SDS011;13944;28.562;77.188;2023-03-21T00:58:15;68.33;;;49.63;;
26201;SDS011;13944;28.562;77.188;2023-03-21T01:00:42;72.60;;;50.13;;
26201;SDS011;13944;28.562;77.188;2023-03-21T01:03:11;71.93;;;51.23;;
26201;SDS011;13944;28.562;77.188;2023-03-21T01:05:42;76.93;;;53.60;;
26201;SDS011;13944;28.562;77.188;2023-03-21T01:08:27;82.63;;;53.40;;
26201;SDS011;13944;28.562;77.188;2023-03-21T01:10:54;80.30;;;54.80;;
26201;SDS011;13944;28.562;77.188;2023-03-21T01:13:22;85.87;;;56.60;;
26201;SDS011;13944;28.562;77.188;2023-03-21T01:15:51;86.70;;;55.57;;
26201;SDS011;13944;28.562;77.188;2023-03-21T01:18:18;85.90;;;56.90;;
26201;SDS011;13944;28.562;77.188;2023-03-21T01:20:46;90.87;;;62.57;;
26201;SDS011;13944;28.562;77.188;2023-03-21T01:23:13;82.67;;;56.80;;
26201;SDS011;13944;28.562;77.188;2023-03-21T01:25:39;86.93;;;55.63;;
26201;SDS011;13944;28.562;77.188;2023-03-21T01:28:06;88.73;;;56.47;;
26201;SDS011;13944;28.562;77.188;2023-03-21T01:30:33;91.13;;;56.97;;
26201;SDS011;13944;28.562;77.188;2023-03-21T01:33:00;87.30;;;56.03;;
26201;SDS011;13944;28.562;77.188;2023-03-21T01:35:26;97.73;;;58.23;;
26201;SDS011;13944;28.562;77.188;2023-03-21T01:37:53;98.00;;;59.23;;
26201;SDS011;13944;28.562;77.188;2023-03-21T01:40:20;102.00;;;61.00;;
26201;SDS011;13944;28.562;77.188;2023-03-21T01:42:47;94.40;;;59.20;;
26201;SDS011;13944;28.562;77.188;2023-03-21T01:47:59;105.47;;;62.27;;
26201;SDS011;13944;28.562;77.188;2023-03-21T01:50:26;96.00;;;62.07;;
26201;SDS011;13944;28.562;77.188;2023-03-21T01:52:52;107.35;;;69.43;;
26201;SDS011;13944;28.562;77.188;2023-03-21T01:55:19;100.77;;;62.40;;
26201;SDS011;13944;28.562;77.188;2023-03-21T01:57:46;99.43;;;62.63;;
26201;SDS011;13944;28.562;77.188;2023-03-21T02:00:17;103.73;;;65.20;;
26201;SDS011;13944;28.562;77.188;2023-03-21T02:02:45;109.17;;;65.20;;
26201;SDS011;13944;28.562;77.188;2023-03-21T02:05:20;112.27;;;64.77;;
26201;SDS011;13944;28.562;77.188;2023-03-21T02:07:48;107.83;;;65.57;;
26201;SDS011;13944;28.562;77.188;2023-03-21T02:10:17;117.17;;;66.50;;
26201;SDS011;13944;28.562;77.188;2023-03-21T02:12:43;113.60;;;68.00;;
26201;SDS011;13944;28.562;77.188;2023-03-21T02:15:10;110.40;;;66.80;;
26201;SDS011;13944;28.562;77.188;2023-03-21T02:20:18;108.15;;;67.97;;
26201;SDS011;13944;28.562;77.188;2023-03-21T02:28:01;96.37;;;57.73;;
26201;SDS011;13944;28.562;77.188;2023-03-21T02:30:42;102.20;;;63.50;;
26201;SDS011;13944;28.562;77.188;2023-03-21T02:33:21;100.30;;;60.77;;
26201;SDS011;13944;28.562;77.188;2023-03-21T02:43:56;88.85;;;60.03;;
26201;SDS011;13944;28.562;77.188;2023-03-21T02:46:26;86.53;;;55.33;;
26201;SDS011;13944;28.562;77.188;2023-03-21T02:51:43;87.60;;;54.10;;
26201;SDS011;13944;28.562;77.188;2023-03-21T02:54:12;87.30;;;53.73;;
26201;SDS011;13944;28.562;77.188;2023-03-21T02:56:40;82.00;;;51.47;;
26201;SDS011;13944;28.562;77.188;2023-03-21T02:59:07;80.63;;;51.93;;
26201;SDS011;13944;28.562;77.188;2023-03-21T03:01:34;80.10;;;51.43;;
26201;SDS011;13944;28.562;77.188;2023-03-21T03:04:01;85.40;;;53.17;;
26201;SDS011;13944;28.562;77.188;2023-03-21T03:06:40;87.10;;;53.93;;
26201;SDS011;13944;28.562;77.188;2023-03-21T03:11:44;88.53;;;55.93;;
26201;SDS011;13944;28.562;77.188;2023-03-21T03:19:15;82.83;;;53.80;;
26201;SDS011;13944;28.562;77.188;2023-03-21T03:24:10;85.33;;;54.67;;
26201;SDS011;13944;28.562;77.188;2023-03-21T03:26:40;86.23;;;54.53;;
26201;SDS011;13944;28.562;77.188;2023-03-21T03:29:14;80.93;;;55.92;;
26201;SDS011;13944;28.562;77.188;2023-03-21T03:31:42;92.40;;;56.77;;
26201;SDS011;13944;28.562;77.188;2023-03-21T03:34:15;85.37;;;55.80;;
26201;SDS011;13944;28.562;77.188;2023-03-21T03:36:45;84.35;;;57.63;;
26201;SDS011;13944;28.562;77.188;2023-03-21T03:39:16;90.63;;;58.03;;
26201;SDS011;13944;28.562;77.188;2023-03-21T03:41:50;88.70;;;57.73;;
26201;SDS011;13944;28.562;77.188;2023-03-21T03:44:19;93.53;;;55.93;;
26201;SDS011;13944;28.562;77.188;2023-03-21T03:46:55;90.53;;;55.83;;
26201;SDS011;13944;28.562;77.188;2023-03-21T03:49:24;76.13;;;50.10;;
26201;SDS011;13944;28.562;77.188;2023-03-21T03:51:56;82.93;;;55.10;;
26201;SDS011;13944;28.562;77.188;2023-03-21T03:54:46;80.80;;;55.72;;
26201;SDS011;13944;28.562;77.188;2023-03-21T03:57:11;80.27;;;50.57;;
26201;SDS011;13944;28.562;77.188;2023-03-21T03:59:39;71.93;;;47.97;;
26201;SDS011;13944;28.562;77.188;2023-03-21T04:02:06;77.60;;;49.40;;
26201;SDS011;13944;28.562;77.188;2023-03-21T04:04:33;73.13;;;48.33;;
26201;SDS011;13944;28.562;77.188;2023-03-21T04:07:01;70.05;;;49.28;;
26201;SDS011;13944;28.562;77.188;2023-03-21T04:09:28;73.97;;;51.25;;
26201;SDS011;13944;28.562;77.188;2023-03-21T04:11:55;72.13;;;48.13;;
26201;SDS011;13944;28.562;77.188;2023-03-21T04:14:22;80.30;;;50.63;;
26201;SDS011;13944;28.562;77.188;2023-03-21T04:16:49;78.20;;;50.40;;
26201;SDS011;13944;28.562;77.188;2023-03-21T04:19:16;74.77;;;46.23;;
26201;SDS011;13944;28.562;77.188;2023-03-21T04:21:43;74.17;;;48.47;;
26201;SDS011;13944;28.562;77.188;2023-03-21T04:24:11;65.83;;;46.20;;
26201;SDS011;13944;28.562;77.188;2023-03-21T04:26:38;70.07;;;46.63;;
26201;SDS011;13944;28.562;77.188;2023-03-21T04:29:04;75.93;;;49.10;;
26201;SDS011;13944;28.562;77.188;2023-03-21T04:31:31;72.83;;;46.60;;
26201;SDS011;13944;28.562;77.188;2023-03-21T04:34:00;70.93;;;45.50;;
26201;SDS011;13944;28.562;77.188;2023-03-21T04:36:27;66.93;;;44.27;;
26201;SDS011;13944;28.562;77.188;2023-03-21T04:39:03;66.47;;;46.30;;
26201;SDS011;13944;28.562;77.188;2023-03-21T04:41:36;76.40;;;48.27;;
26201;SDS011;13944;28.562;77.188;2023-03-21T04:44:03;72.72;;;51.60;;
26201;SDS011;13944;28.562;77.188;2023-03-21T04:46:30;78.25;;;53.80;;
26201;SDS011;13944;28.562;77.188;2023-03-21T04:48:57;68.93;;;46.57;;
26201;SDS011;13944;28.562;77.188;2023-03-21T04:51:23;71.80;;;48.13;;
26201;SDS011;13944;28.562;77.188;2023-03-21T04:53:50;71.18;;;51.33;;
26201;SDS011;13944;28.562;77.188;2023-03-21T04:56:22;71.80;;;47.70;;
26201;SDS011;13944;28.562;77.188;2023-03-21T04:58:55;74.20;;;47.85;;
26201;SDS011;13944;28.562;77.188;2023-03-21T05:01:21;70.67;;;47.27;;
26201;SDS011;13944;28.562;77.188;2023-03-21T05:03:50;63.60;;;46.17;;
26201;SDS011;13944;28.562;77.188;2023-03-21T05:06:17;72.68;;;51.47;;
26201;SDS011;13944;28.562;77.188;2023-03-21T05:08:43;75.93;;;51.35;;
26201;SDS011;13944;28.562;77.188;2023-03-21T05:11:10;72.37;;;49.17;;
26201;SDS011;13944;28.562;77.188;2023-03-21T05:13:36;81.00;;;53.27;;
26201;SDS011;13944;28.562;77.188;2023-03-21T05:16:03;78.13;;;55.38;;
26201;SDS011;13944;28.562;77.188;2023-03-21T05:18:30;81.87;;;55.50;;
26201;SDS011;13944;28.562;77.188;2023-03-21T05:20:59;81.20;;;50.20;;
26201;SDS011;13944;28.562;77.188;2023-03-21T05:23:25;80.30;;;56.20;;
26201;SDS011;13944;28.562;77.188;2023-03-21T05:25:55;80.13;;;57.60;;
26201;SDS011;13944;28.562;77.188;2023-03-21T05:28:22;87.50;;;60.75;;
26201;SDS011;13944;28.562;77.188;2023-03-21T05:30:55;86.38;;;57.33;;
26201;SDS011;13944;28.562;77.188;2023-03-21T05:33:22;92.05;;;68.03;;
26201;SDS011;13944;28.562;77.188;2023-03-21T05:35:51;100.78;;;67.72;;
26201;SDS011;13944;28.562;77.188;2023-03-21T05:38:18;96.40;;;65.07;;
26201;SDS011;13944;28.562;77.188;2023-03-21T05:40:48;94.90;;;63.83;;
26201;SDS011;13944;28.562;77.188;2023-03-21T05:43:14;97.95;;;62.65;;
26201;SDS011;13944;28.562;77.188;2023-03-21T05:45:41;101.63;;;66.50;;
26201;SDS011;13944;28.562;77.188;2023-03-21T05:48:08;89.82;;;63.33;;
26201;SDS011;13944;28.562;77.188;2023-03-21T05:50:35;89.68;;;59.78;;
26201;SDS011;13944;28.562;77.188;2023-03-21T05:53:03;85.90;;;60.28;;
26201;SDS011;13944;28.562;77.188;2023-03-21T05:55:31;89.22;;;62.15;;
26201;SDS011;13944;28.562;77.188;2023-03-21T05:57:57;86.10;;;59.33;;
26201;SDS011;13944;28.562;77.188;2023-03-21T06:00:24;86.25;;;59.85;;
26201;SDS011;13944;28.562;77.188;2023-03-21T06:02:51;86.38;;;59.47;;
26201;SDS011;13944;28.562;77.188;2023-03-21T06:05:17;85.65;;;59.30;;
26201;SDS011;13944;28.562;77.188;2023-03-21T06:07:44;93.55;;;62.58;;
26201;SDS011;13944;28.562;77.188;2023-03-21T06:10:11;97.82;;;63.03;;
26201;SDS011;13944;28.562;77.188;2023-03-21T06:12:37;87.27;;;61.03;;
26201;SDS011;13944;28.562;77.188;2023-03-21T06:15:04;92.70;;;62.75;;
26201;SDS011;13944;28.562;77.188;2023-03-21T06:17:33;86.15;;;56.38;;
26201;SDS011;13944;28.562;77.188;2023-03-21T06:19:59;87.00;;;60.50;;
26201;SDS011;13944;28.562;77.188;2023-03-21T06:22:26;87.65;;;58.92;;
26201;SDS011;13944;28.562;77.188;2023-03-21T06:24:53;81.63;;;59.15;;
26201;SDS011;13944;28.562;77.188;2023-03-21T06:27:20;80.60;;;58.22;;
26201;SDS011;13944;28.562;77.188;2023-03-21T06:29:47;80.53;;;57.83;;
26201;SDS011;13944;28.562;77.188;2023-03-21T06:32:13;94.75;;;66.72;;
26201;SDS011;13944;28.562;77.188;2023-03-21T06:34:40;92.88;;;63.03;;
26201;SDS011;13944;28.562;77.188;2023-03-21T06:37:07;88.35;;;59.03;;
26201;SDS011;13944;28.562;77.188;2023-03-21T06:39:34;84.78;;;58.78;;
26201;SDS011;13944;28.562;77.188;2023-03-21T06:42:01;96.00;;;65.90;;
26201;SDS011;13944;28.562;77.188;2023-03-21T06:44:28;93.90;;;65.03;;
26201;SDS011;13944;28.562;77.188;2023-03-21T06:46:54;88.63;;;60.28;;
26201;SDS011;13944;28.562;77.188;2023-03-21T06:49:21;79.78;;;56.28;;
26201;SDS011;13944;28.562;77.188;2023-03-21T06:51:48;83.70;;;58.53;;
26201;SDS011;13944;28.562;77.188;2023-03-21T06:54:14;86.82;;;60.85;;
26201;SDS011;13944;28.562;77.188;2023-03-21T06:56:43;85.93;;;64.70;;
26201;SDS011;13944;28.562;77.188;2023-03-21T06:59:10;85.25;;;61.15;;
26201;SDS011;13944;28.562;77.188;2023-03-21T07:01:36;85.88;;;59.22;;
26201;SDS011;13944;28.562;77.188;2023-03-21T07:04:03;94.50;;;63.08;;
26201;SDS011;13944;28.562;77.188;2023-03-21T07:06:30;90.68;;;63.75;;
26201;SDS011;13944;28.562;77.188;2023-03-21T07:08:57;89.05;;;63.38;;
26201;SDS011;13944;28.562;77.188;2023-03-21T07:11:24;97.78;;;62.85;;
26201;SDS011;13944;28.562;77.188;2023-03-21T07:13:51;83.05;;;62.05;;
26201;SDS011;13944;28.562;77.188;2023-03-21T07:16:18;89.32;;;61.95;;
26201;SDS011;13944;28.562;77.188;2023-03-21T07:18:45;86.60;;;61.75;;
26201;SDS011;13944;28.562;77.188;2023-03-21T07:21:15;85.35;;;57.67;;
26201;SDS011;13944;28.562;77.188;2023-03-21T07:23:42;86.20;;;57.92;;
26201;SDS011;13944;28.562;77.188;2023-03-21T07:26:08;81.03;;;59.70;;
26201;SDS011;13944;28.562;77.188;2023-03-21T07:28:35;78.03;;;56.17;;
26201;SDS011;13944;28.562;77.188;2023-03-21T07:31:02;79.30;;;58.10;;
26201;SDS011;13944;28.562;77.188;2023-03-21T07:33:30;80.28;;;59.22;;
26201;SDS011;13944;28.562;77.188;2023-03-21T07:35:57;76.63;;;55.53;;
26201;SDS011;13944;28.562;77.188;2023-03-21T07:38:24;75.35;;;56.10;;
26201;SDS011;13944;28.562;77.188;2023-03-21T07:40:51;76.78;;;53.03;;
26201;SDS011;13944;28.562;77.188;2023-03-21T07:43:17;87.25;;;60.25;;
26201;SDS011;13944;28.562;77.188;2023-03-21T07:45:44;77.28;;;56.83;;
26201;SDS011;13944;28.562;77.188;2023-03-21T07:48:11;78.45;;;53.35;;
26201;SDS011;13944;28.562;77.188;2023-03-21T07:50:38;85.47;;;60.65;;
26201;SDS011;13944;28.562;77.188;2023-03-21T07:53:05;85.45;;;60.35;;
26201;SDS011;13944;28.562;77.188;2023-03-21T07:55:32;87.85;;;58.58;;
26201;SDS011;13944;28.562;77.188;2023-03-21T07:58:02;89.53;;;58.17;;
26201;SDS011;13944;28.562;77.188;2023-03-21T08:00:29;88.85;;;59.88;;
26201;SDS011;13944;28.562;77.188;2023-03-21T08:02:56;70.22;;;54.17;;
26201;SDS011;13944;28.562;77.188;2023-03-21T08:05:25;76.97;;;54.17;;
26201;SDS011;13944;28.562;77.188;2023-03-21T08:07:52;74.90;;;52.83;;
26201;SDS011;13944;28.562;77.188;2023-03-21T08:10:18;70.97;;;52.00;;
26201;SDS011;13944;28.562;77.188;2023-03-21T08:12:45;62.13;;;44.88;;
26201;SDS011;13944;28.562;77.188;2023-03-21T08:15:12;71.15;;;53.15;;
26201;SDS011;13944;28.562;77.188;2023-03-21T08:17:39;69.35;;;51.53;;
26201;SDS011;13944;28.562;77.188;2023-03-21T08:20:06;68.93;;;49.70;;
26201;SDS011;13944;28.562;77.188;2023-03-21T08:22:36;71.72;;;51.42;;
26201;SDS011;13944;28.562;77.188;2023-03-21T08:25:03;73.15;;;54.15;;
26201;SDS011;13944;28.562;77.188;2023-03-21T08:27:30;71.57;;;53.15;;
26201;SDS011;13944;28.562;77.188;2023-03-21T08:29:57;72.38;;;51.60;;
26201;SDS011;13944;28.562;77.188;2023-03-21T08:32:24;72.07;;;54.10;;
26201;SDS011;13944;28.562;77.188;2023-03-21T08:34:54;73.57;;;52.55;;
26201;SDS011;13944;28.562;77.188;2023-03-21T08:37:23;74.93;;;53.95;;
26201;SDS011;13944;28.562;77.188;2023-03-21T08:39:50;66.35;;;49.53;;
26201;SDS011;13944;28.562;77.188;2023-03-21T08:42:16;70.18;;;54.03;;
26201;SDS011;13944;28.562;77.188;2023-03-21T08:44:43;74.85;;;53.28;;
26201;SDS011;13944;28.562;77.188;2023-03-21T08:47:10;80.82;;;54.20;;
26201;SDS011;13944;28.562;77.188;2023-03-21T08:49:36;69.57;;;51.33;;
26201;SDS011;13944;28.562;77.188;2023-03-21T08:52:03;67.32;;;52.03;;
26201;SDS011;13944;28.562;77.188;2023-03-21T08:54:30;69.20;;;51.63;;
26201;SDS011;13944;28.562;77.188;2023-03-21T08:56:57;71.35;;;54.83;;
26201;SDS011;13944;28.562;77.188;2023-03-21T08:59:26;80.85;;;54.95;;
26201;SDS011;13944;28.562;77.188;2023-03-21T09:01:53;70.28;;;51.70;;
26201;SDS011;13944;28.562;77.188;2023-03-21T09:04:20;69.75;;;51.42;;
26201;SDS011;13944;28.562;77.188;2023-03-21T09:06:50;66.63;;;47.97;;
26201;SDS011;13944;28.562;77.188;2023-03-21T09:09:16;70.68;;;50.83;;
26201;SDS011;13944;28.562;77.188;2023-03-21T09:11:43;71.07;;;50.67;;
26201;SDS011;13944;28.562;77.188;2023-03-21T09:14:10;68.90;;;47.42;;
26201;SDS011;13944;28.562;77.188;2023-03-21T09:16:36;71.32;;;51.95;;
26201;SDS011;13944;28.562;77.188;2023-03-21T09:19:03;64.80;;;46.75;;
26201;SDS011;13944;28.562;77.188;2023-03-21T09:21:32;69.65;;;46.60;;
26201;SDS011;13944;28.562;77.188;2023-03-21T09:24:00;59.22;;;43.88;;
26201;SDS011;13944;28.562;77.188;2023-03-21T09:26:27;59.87;;;46.73;;
26201;SDS011;13944;28.562;77.188;2023-03-21T09:28:54;67.95;;;45.35;;
26201;SDS011;13944;28.562;77.188;2023-03-21T09:31:21;63.67;;;46.33;;
26201;SDS011;13944;28.562;77.188;2023-03-21T09:33:49;65.40;;;45.72;;
26201;SDS011;13944;28.562;77.188;2023-03-21T09:36:16;57.63;;;45.17;;
26201;SDS011;13944;28.562;77.188;2023-03-21T09:38:45;57.85;;;44.72;;
26201;SDS011;13944;28.562;77.188;2023-03-21T09:46:31;53.50;;;39.67;;
26201;SDS011;13944;28.562;77.188;2023-03-21T09:49:01;61.47;;;42.55;;
26201;SDS011;13944;28.562;77.188;2023-03-21T09:51:34;52.35;;;36.17;;
26201;SDS011;13944;28.562;77.188;2023-03-21T09:54:04;47.17;;;32.47;;
26201;SDS011;13944;28.562;77.188;2023-03-21T09:56:33;46.33;;;35.65;;
26201;SDS011;13944;28.562;77.188;2023-03-21T09:59:01;50.43;;;36.37;;
26201;SDS011;13944;28.562;77.188;2023-03-21T10:01:28;44.30;;;33.95;;
26201;SDS011;13944;28.562;77.188;2023-03-21T10:04:03;48.15;;;35.08;;
26201;SDS011;13944;28.562;77.188;2023-03-21T10:06:30;44.85;;;33.65;;
26201;SDS011;13944;28.562;77.188;2023-03-21T10:09:03;45.92;;;32.15;;
26201;SDS011;13944;28.562;77.188;2023-03-21T10:11:37;44.30;;;32.58;;
26201;SDS011;13944;28.562;77.188;2023-03-21T10:14:10;37.90;;;29.73;;
26201;SDS011;13944;28.562;77.188;2023-03-21T10:16:41;40.47;;;31.80;;
26201;SDS011;13944;28.562;77.188;2023-03-21T10:19:12;40.10;;;31.17;;
26201;SDS011;13944;28.562;77.188;2023-03-21T10:21:40;40.70;;;29.70;;
26201;SDS011;13944;28.562;77.188;2023-03-21T10:24:10;37.28;;;27.25;;
26201;SDS011;13944;28.562;77.188;2023-03-21T10:26:37;36.83;;;25.13;;
26201;SDS011;13944;28.562;77.188;2023-03-21T10:29:04;30.87;;;22.50;;
26201;SDS011;13944;28.562;77.188;2023-03-21T10:31:31;34.70;;;25.35;;
26201;SDS011;13944;28.562;77.188;2023-03-21T10:34:00;33.33;;;23.73;;
26201;SDS011;13944;28.562;77.188;2023-03-21T10:36:28;38.17;;;26.05;;
26201;SDS011;13944;28.562;77.188;2023-03-21T10:38:59;33.83;;;25.83;;
26201;SDS011;13944;28.562;77.188;2023-03-21T10:41:26;40.42;;;26.77;;
26201;SDS011;13944;28.562;77.188;2023-03-21T10:44:09;32.22;;;24.80;;
26201;SDS011;13944;28.562;77.188;2023-03-21T10:46:37;41.40;;;28.58;;
26201;SDS011;13944;28.562;77.188;2023-03-21T10:49:06;33.53;;;25.90;;
26201;SDS011;13944;28.562;77.188;2023-03-21T10:51:34;33.80;;;25.05;;
26201;SDS011;13944;28.562;77.188;2023-03-21T10:54:06;34.83;;;27.23;;
26201;SDS011;13944;28.562;77.188;2023-03-21T10:56:35;34.42;;;26.55;;
26201;SDS011;13944;28.562;77.188;2023-03-21T10:59:03;31.05;;;24.48;;
26201;SDS011;13944;28.562;77.188;2023-03-21T11:01:35;37.72;;;27.10;;
26201;SDS011;13944;28.562;77.188;2023-03-21T11:04:13;37.72;;;28.65;;
26201;SDS011;13944;28.562;77.188;2023-03-21T11:06:40;35.47;;;28.20;;
26201;SDS011;13944;28.562;77.188;2023-03-21T11:09:11;34.75;;;26.77;;
26201;SDS011;13944;28.562;77.188;2023-03-21T11:11:40;37.13;;;27.30;;
26201;SDS011;13944;28.562;77.188;2023-03-21T11:14:12;40.38;;;28.85;;
26201;SDS011;13944;28.562;77.188;2023-03-21T11:16:49;38.92;;;28.75;;
26201;SDS011;13944;28.562;77.188;2023-03-21T11:19:27;37.10;;;28.48;;
26201;SDS011;13944;28.562;77.188;2023-03-21T11:21:55;34.72;;;27.35;;
26201;SDS011;13944;28.562;77.188;2023-03-21T11:24:23;40.05;;;28.83;;
26201;SDS011;13944;28.562;77.188;2023-03-21T11:26:53;40.00;;;28.83;;
26201;SDS011;13944;28.562;77.188;2023-03-21T11:31:48;38.28;;;29.45;;
26201;SDS011;13944;28.562;77.188;2023-03-21T11:34:32;38.33;;;29.25;;
26201;SDS011;13944;28.562;77.188;2023-03-21T11:37:00;39.45;;;28.13;;
26201;SDS011;13944;28.562;77.188;2023-03-21T11:41:57;43.45;;;29.90;;
26201;SDS011;13944;28.562;77.188;2023-03-21T11:44:25;39.67;;;29.73;;
26201;SDS011;13944;28.562;77.188;2023-03-21T11:46:52;40.40;;;29.13;;
26201;SDS011;13944;28.562;77.188;2023-03-21T11:49:20;40.25;;;30.52;;
26201;SDS011;13944;28.562;77.188;2023-03-21T11:51:58;41.45;;;30.52;;
26201;SDS011;13944;28.562;77.188;2023-03-21T11:54:30;42.83;;;33.10;;
26201;SDS011;13944;28.562;77.188;2023-03-21T11:57:11;40.92;;;33.33;;
26201;SDS011;13944;28.562;77.188;2023-03-21T12:04:43;42.90;;;31.25;;
26201;SDS011;13944;28.562;77.188;2023-03-21T12:12:23;43.60;;;34.25;;
26201;SDS011;13944;28.562;77.188;2023-03-21T12:22:36;50.15;;;36.75;;
26201;SDS011;13944;28.562;77.188;2023-03-21T12:25:26;49.75;;;37.78;;
26201;SDS011;13944;28.562;77.188;2023-03-21T12:27:55;52.58;;;38.13;;
26201;SDS011;13944;28.562;77.188;2023-03-21T12:33:26;48.42;;;35.10;;
26201;SDS011;13944;28.562;77.188;2023-03-21T12:36:02;56.88;;;38.20;;
26201;SDS011;13944;28.562;77.188;2023-03-21T12:44:13;52.80;;;36.70;;
26201;SDS011;13944;28.562;77.188;2023-03-21T12:49:14;59.67;;;40.15;;
26201;SDS011;13944;28.562;77.188;2023-03-21T12:51:45;55.92;;;40.67;;
26201;SDS011;13944;28.562;77.188;2023-03-21T12:54:29;58.22;;;43.95;;
26201;SDS011;13944;28.562;77.188;2023-03-21T12:56:59;60.72;;;41.92;;
26201;SDS011;13944;28.562;77.188;2023-03-21T12:59:29;65.35;;;44.42;;
26201;SDS011;13944;28.562;77.188;2023-03-21T13:01:59;64.85;;;43.92;;
26201;SDS011;13944;28.562;77.188;2023-03-21T13:04:40;59.42;;;45.38;;
26201;SDS011;13944;28.562;77.188;2023-03-21T13:07:08;66.30;;;46.33;;
26201;SDS011;13944;28.562;77.188;2023-03-21T13:09:37;70.45;;;50.60;;
26201;SDS011;13944;28.562;77.188;2023-03-21T13:14:58;64.65;;;46.53;;
26201;SDS011;13944;28.562;77.188;2023-03-21T13:17:31;65.57;;;48.47;;
26201;SDS011;13944;28.562;77.188;2023-03-21T13:20:07;65.97;;;46.90;;
26201;SDS011;13944;28.562;77.188;2023-03-21T13:22:36;66.90;;;48.10;;
26201;SDS011;13944;28.562;77.188;2023-03-21T13:25:04;71.60;;;49.42;;
26201;SDS011;13944;28.562;77.188;2023-03-21T13:27:37;71.53;;;49.72;;
26201;SDS011;13944;28.562;77.188;2023-03-21T13:32:43;67.07;;;48.38;;
26201;SDS011;13944;28.562;77.188;2023-03-21T13:37:56;63.65;;;45.95;;
26201;SDS011;13944;28.562;77.188;2023-03-21T13:40:24;64.07;;;46.67;;
26201;SDS011;13944;28.562;77.188;2023-03-21T13:42:52;57.35;;;42.72;;
26201;SDS011;13944;28.562;77.188;2023-03-21T13:45:29;55.55;;;42.55;;
26201;SDS011;13944;28.562;77.188;2023-03-21T13:47:57;55.25;;;42.10;;
26201;SDS011;13944;28.562;77.188;2023-03-21T13:53:26;56.22;;;40.05;;
26201;SDS011;13944;28.562;77.188;2023-03-21T13:55:45;51.72;;;40.25;;
26201;SDS011;13944;28.562;77.188;2023-03-21T13:58:22;57.80;;;41.50;;
26201;SDS011;13944;28.562;77.188;2023-03-21T14:01:11;60.30;;;42.60;;
26201;SDS011;13944;28.562;77.188;2023-03-21T14:03:40;58.13;;;39.67;;
26201;SDS011;13944;28.562;77.188;2023-03-21T14:06:07;55.17;;;39.90;;
26201;SDS011;13944;28.562;77.188;2023-03-21T14:08:34;62.03;;;39.90;;
26201;SDS011;13944;28.562;77.188;2023-03-21T14:11:03;53.95;;;37.88;;
26201;SDS011;13944;28.562;77.188;2023-03-21T14:13:30;56.30;;;39.03;;
26201;SDS011;13944;28.562;77.188;2023-03-21T14:16:03;53.58;;;38.70;;
26201;SDS011;13944;28.562;77.188;2023-03-21T14:18:38;58.05;;;40.38;;
26201;SDS011;13944;28.562;77.188;2023-03-21T14:21:13;62.58;;;40.72;;
26201;SDS011;13944;28.562;77.188;2023-03-21T14:23:39;65.00;;;39.28;;
26201;SDS011;13944;28.562;77.188;2023-03-21T14:26:07;69.38;;;42.40;;
26201;SDS011;13944;28.562;77.188;2023-03-21T14:28:35;71.03;;;39.70;;
26201;SDS011;13944;28.562;77.188;2023-03-21T14:31:02;63.17;;;40.78;;
26201;SDS011;13944;28.562;77.188;2023-03-21T14:33:34;63.10;;;43.00;;
26201;SDS011;13944;28.562;77.188;2023-03-21T14:36:03;66.78;;;42.80;;
26201;SDS011;13944;28.562;77.188;2023-03-21T14:38:34;75.57;;;42.90;;
26201;SDS011;13944;28.562;77.188;2023-03-21T14:41:01;61.05;;;42.65;;
26201;SDS011;13944;28.562;77.188;2023-03-21T14:43:28;69.75;;;44.15;;
26201;SDS011;13944;28.562;77.188;2023-03-21T14:45:58;75.35;;;42.53;;
26201;SDS011;13944;28.562;77.188;2023-03-21T14:48:43;69.63;;;44.00;;
26201;SDS011;13944;28.562;77.188;2023-03-21T14:51:09;69.97;;;43.75;;
26201;SDS011;13944;28.562;77.188;2023-03-21T14:53:37;84.05;;;47.88;;
26201;SDS011;13944;28.562;77.188;2023-03-21T14:56:23;72.65;;;47.38;;
26201;SDS011;13944;28.562;77.188;2023-03-21T14:58:51;73.60;;;45.90;;
26201;SDS011;13944;28.562;77.188;2023-03-21T15:01:28;81.90;;;45.35;;
26201;SDS011;13944;28.562;77.188;2023-03-21T15:03:57;81.43;;;44.88;;
26201;SDS011;13944;28.562;77.188;2023-03-21T15:06:24;80.55;;;44.78;;
26201;SDS011;13944;28.562;77.188;2023-03-21T15:08:55;77.80;;;45.75;;
26201;SDS011;13944;28.562;77.188;2023-03-21T15:11:29;83.13;;;47.03;;
26201;SDS011;13944;28.562;77.188;2023-03-21T15:13:56;77.90;;;44.30;;
26201;SDS011;13944;28.562;77.188;2023-03-21T15:16:25;79.50;;;44.22;;
26201;SDS011;13944;28.562;77.188;2023-03-21T15:18:51;82.10;;;47.22;;
26201;SDS011;13944;28.562;77.188;2023-03-21T15:21:26;75.28;;;46.00;;
26201;SDS011;13944;28.562;77.188;2023-03-21T15:24:13;82.57;;;44.00;;
26201;SDS011;13944;28.562;77.188;2023-03-21T15:26:45;74.47;;;44.95;;
26201;SDS011;13944;28.562;77.188;2023-03-21T15:29:12;73.85;;;46.92;;
26201;SDS011;13944;28.562;77.188;2023-03-21T15:31:39;76.55;;;47.75;;
26201;SDS011;13944;28.562;77.188;2023-03-21T15:34:06;74.88;;;50.28;;
26201;SDS011;13944;28.562;77.188;2023-03-21T15:39:00;74.25;;;50.03;;
26201;SDS011;13944;28.562;77.188;2023-03-21T15:41:28;76.10;;;50.53;;
26201;SDS011;13944;28.562;77.188;2023-03-21T15:46:38;81.95;;;54.30;;